Pine Prairie, LA (70576)

12:32 AM CDT on September 16, 2014 (GMT -0500)
Oakdale | Change Station
CLOSE
Current Station
Airport
Location: Oakdale,
Elevation: 108 ft
Nearby Weather Stations

Elev 108 ft 30.75 °N, 92.69 °W | Updated 17 minutes ago

Mostly Cloudy
Mostly Cloudy
78 °F
Feels Like 78 °F
N
0
Wind Variable Wind from North

Today
High -- | Low -- °F
--% Chance of Precip.
Yesterday
High -- | Low -- °F
Precip. -- in
6:54 AM 7:13 PM
Waning Gibbous, 49% visible
Pressure 30.10 in
Visibility 10.0 miles
Clouds Mostly Cloudy 6000 ft
Overcast 7000 ft
Dew Point 75 °F
Humidity 90%
Rainfall 0.00 in
Snow Depth Not available.
UV 0 out of 12
Pollen 9.20 out of 12
Air Quality Not available.
Flu Activity Not available.
METAR KACP 160515Z AUTO 00000KT 10SM BKN060 OVC070 26/24 A3010 RMK AO2 T02550238

More Conditions Fewer Conditions

Pressure 30.10 in
Visibility 10.0 miles
Clouds Mostly Cloudy 6000 ft
Overcast 7000 ft
Dew Point 75 °F
Humidity 90%
Rainfall 0.00 in
Snow Depth Not available.
UV 0 out of 12
Pollen 9.20 out of 12
Air Quality Not available.
Flu Activity Not available.
METAR KACP 160515Z AUTO 00000KT 10SM BKN060 OVC070 26/24 A3010 RMK AO2 T02550238

More Conditions Fewer Conditions

10-Day Weather Forecast

Almanac

Astronomy

Sep. 16, 2014 Rise Set
Actual Time 6:54 AM CDT 7:13 PM CDT
Civil Twilight 6:30 AM CDT 7:38 PM CDT
Nautical Twilight 6:02 AM CDT 8:06 PM CDT
Astronomical Twilight 5:33 AM CDT 8:34 PM CDT
Moon 12:21 AM CDT 2:20 PM CDT
Length of Visible Light 13h 07m
Length of Day
12h 19m
Tomorrow will be 1m 51s shorter.
Waning Gibbous, 49% of the Moon is Illuminated
Today
Waning Gibbous
Sep 24
New
Oct 1
First Quarter
Oct 8
Full
Oct 15
Last Quarter

Today's Extremes

State Highs State Lows

Community

WunderPhotos

Upload Photos

1,753,702 photos uploaded!

Nearby

Snow Depth

Station Depth Elevation
No new snow has been reported.

Earthquake Activity

City Distance Mag. Time & Date
No recent earthquake activity has been reported nearby.
Minimum magnitude displayed is 2.5.

Coastal Water Temperatures

Place Temperature
No Stations Reporting

Nearby Weather Stations